createdAt,value
2018-06-22T00:02:29.549Z,11.60
2018-06-22T00:04:58.621Z,11.50
2018-06-22T00:07:27.597Z,11.50
2018-06-22T00:09:56.570Z,11.40
2018-06-22T00:12:25.551Z,11.30
2018-06-22T00:14:54.513Z,11.30
2018-06-22T00:17:23.490Z,11.30
2018-06-22T00:19:59.111Z,11.20
2018-06-22T00:22:28.255Z,11.20
2018-06-22T00:24:57.212Z,11.10
2018-06-22T00:27:26.242Z,11.10
2018-06-22T00:29:55.459Z,11.00
2018-06-22T00:32:24.558Z,11.00
2018-06-22T00:34:53.486Z,11.00
2018-06-22T00:37:22.427Z,11.10
2018-06-22T00:39:51.398Z,11.10
2018-06-22T00:42:20.395Z,11.10
2018-06-22T00:44:49.349Z,11.10
2018-06-22T00:47:18.268Z,11.10
2018-06-22T00:49:47.224Z,11.10
2018-06-22T00:52:16.249Z,11.00
2018-06-22T00:54:45.348Z,11.00
2018-06-22T00:57:14.346Z,10.90
2018-06-22T00:59:43.537Z,10.90
2018-06-22T01:02:12.518Z,10.90
2018-06-22T01:04:41.601Z,10.80
2018-06-22T01:07:10.518Z,10.80
2018-06-22T01:09:39.481Z,10.80
2018-06-22T01:12:08.845Z,10.90
2018-06-22T01:14:37.926Z,10.90
2018-06-22T01:17:06.890Z,10.90
2018-06-22T01:19:36.333Z,10.90
2018-06-22T01:22:05.518Z,10.90
2018-06-22T01:24:34.433Z,10.90
2018-06-22T01:27:03.439Z,10.90
2018-06-22T01:29:32.653Z,11.00
2018-06-22T01:32:02.560Z,11.00
2018-06-22T01:34:31.490Z,11.00
2018-06-22T01:37:00.447Z,11.00
2018-06-22T01:39:29.394Z,11.00
2018-06-22T01:41:58.343Z,11.10
2018-06-22T01:44:27.323Z,11.20
2018-06-22T01:46:56.782Z,11.20
2018-06-22T01:49:25.755Z,11.30
2018-06-22T01:54:23.344Z,11.30
2018-06-22T01:56:52.398Z,11.30
2018-06-22T01:59:21.323Z,11.40
2018-06-22T02:04:19.012Z,11.40
2018-06-22T02:06:48.020Z,11.40
2018-06-22T02:09:17.254Z,11.40
2018-06-22T02:11:46.351Z,11.40
2018-06-22T02:14:15.301Z,11.40
2018-06-22T02:16:44.310Z,11.50
2018-06-22T02:19:13.202Z,11.50
2018-06-22T02:21:42.200Z,11.50
2018-06-22T02:24:11.169Z,11.50
2018-06-22T02:26:40.185Z,11.50
2018-06-22T02:29:09.123Z,11.50
2018-06-22T02:31:38.352Z,11.50
2018-06-22T02:34:07.605Z,11.50
2018-06-22T02:36:36.674Z,11.60
2018-06-22T02:39:08.997Z,11.60
2018-06-22T02:41:37.907Z,11.70
2018-06-22T02:44:06.829Z,11.60
2018-06-22T02:46:35.907Z,11.70
2018-06-22T02:49:05.795Z,11.80
2018-06-22T02:51:34.749Z,11.80
2018-06-22T02:54:03.710Z,11.90
2018-06-22T02:56:33.274Z,11.90
2018-06-22T02:59:02.383Z,11.90
2018-06-22T03:01:31.362Z,12.00
2018-06-22T03:04:00.511Z,12.00
2018-06-22T03:06:29.569Z,12.00
2018-06-22T03:08:58.559Z,12.00
2018-06-22T03:11:27.539Z,12.00
2018-06-22T03:13:56.973Z,12.00
2018-06-22T03:16:25.936Z,12.00
2018-06-22T03:18:54.881Z,12.00
2018-06-22T03:23:52.567Z,12.10
2018-06-22T03:26:21.608Z,12.10
2018-06-22T03:28:50.763Z,12.10
2018-06-22T03:31:19.728Z,12.10
2018-06-22T03:33:48.689Z,12.20
2018-06-22T03:36:17.948Z,12.20
2018-06-22T03:38:46.908Z,12.30
2018-06-22T03:41:15.842Z,12.20
2018-06-22T03:43:44.891Z,12.20
2018-06-22T03:46:13.971Z,12.10
2018-06-22T03:48:43.002Z,12.10
2018-06-22T03:51:12.188Z,12.00
2018-06-22T03:53:41.304Z,12.00
2018-06-22T03:56:10.486Z,12.00
2018-06-22T03:58:39.426Z,12.00
2018-06-22T04:01:08.489Z,12.00
2018-06-22T04:03:37.470Z,12.00
2018-06-22T04:06:06.574Z,12.00
2018-06-22T04:08:35.596Z,12.00
2018-06-22T04:11:04.687Z,12.00
2018-06-22T04:13:33.615Z,12.00
2018-06-22T04:16:02.681Z,12.10
2018-06-22T04:18:31.653Z,12.10
2018-06-22T04:21:01.671Z,12.10
2018-06-22T04:23:30.930Z,12.20
2018-06-22T04:28:28.695Z,12.30
2018-06-22T04:33:26.427Z,12.50
2018-06-22T04:35:55.381Z,12.50
2018-06-22T04:38:24.504Z,12.50
2018-06-22T04:40:53.526Z,12.60
2018-06-22T04:43:22.521Z,12.50
2018-06-22T04:45:51.491Z,12.60
2018-06-22T04:48:20.554Z,12.70
2018-06-22T04:50:49.942Z,12.80
2018-06-22T04:53:19.109Z,12.80
2018-06-22T04:55:48.050Z,12.70
2018-06-22T04:58:17.025Z,12.70
2018-06-22T05:00:46.098Z,12.60
2018-06-22T05:03:15.285Z,12.60
2018-06-22T05:05:44.260Z,12.60
2018-06-22T05:08:13.259Z,12.60
2018-06-22T05:13:11.222Z,12.70
2018-06-22T05:15:40.405Z,12.80
2018-06-22T05:18:09.341Z,12.90
2018-06-22T05:20:38.396Z,13.00
2018-06-22T05:23:07.857Z,13.10
2018-06-22T05:25:37.243Z,13.20
2018-06-22T05:28:07.250Z,13.30
2018-06-22T05:33:04.988Z,13.40
2018-06-22T05:35:33.934Z,13.30
2018-06-22T05:38:02.898Z,13.30
2018-06-22T05:40:31.867Z,13.30
2018-06-22T05:43:00.794Z,13.40
2018-06-22T05:45:29.759Z,13.30
2018-06-22T05:47:58.754Z,13.30
2018-06-22T05:52:56.309Z,13.40
2018-06-22T05:55:25.350Z,13.30
2018-06-22T05:57:54.400Z,13.30
2018-06-22T06:00:23.360Z,13.30
2018-06-22T06:02:52.326Z,13.30
2018-06-22T06:05:21.269Z,13.30
2018-06-22T06:07:50.269Z,13.30
2018-06-22T06:12:47.956Z,13.40
2018-06-22T06:15:16.918Z,13.50
2018-06-22T06:17:46.440Z,13.50
2018-06-22T06:20:15.405Z,13.50
2018-06-22T06:22:44.409Z,13.50
2018-06-22T06:25:13.342Z,13.50
2018-06-22T06:27:42.324Z,13.50
2018-06-22T06:30:11.489Z,13.50
2018-06-22T06:32:40.446Z,13.50
2018-06-22T06:35:09.417Z,13.50
2018-06-22T06:37:38.400Z,13.50
2018-06-22T06:40:07.531Z,13.60
2018-06-22T06:42:36.523Z,13.80
2018-06-22T06:45:05.556Z,14.00
2018-06-22T06:47:34.610Z,14.00
2018-06-22T06:50:03.590Z,14.00
2018-06-22T06:52:32.574Z,13.90
2018-06-22T06:55:01.963Z,13.80
2018-06-22T06:57:31.071Z,13.80
2018-06-22T07:00:00.184Z,13.80
2018-06-22T07:02:29.132Z,13.80
2018-06-22T07:04:58.195Z,13.60
2018-06-22T07:07:27.713Z,13.40
2018-06-22T07:12:25.351Z,13.30
2018-06-22T07:14:54.342Z,13.30
2018-06-22T07:17:23.317Z,13.40
2018-06-22T07:19:52.280Z,13.40
2018-06-22T07:22:21.223Z,13.40
2018-06-22T07:24:50.192Z,13.40
2018-06-22T07:27:19.158Z,13.40
2018-06-22T07:29:48.121Z,13.30
2018-06-22T07:32:17.237Z,13.20
2018-06-22T07:34:46.235Z,13.10
2018-06-22T07:37:15.289Z,13.10
2018-06-22T07:42:12.841Z,12.90
2018-06-22T07:44:41.802Z,13.00
2018-06-22T07:47:10.810Z,13.00
2018-06-22T07:49:39.800Z,13.20
2018-06-22T07:52:08.969Z,13.40
2018-06-22T07:54:37.929Z,13.50
2018-06-22T07:57:06.863Z,13.90
2018-06-22T07:59:35.891Z,14.40
2018-06-22T08:02:04.845Z,14.60
2018-06-22T08:04:33.919Z,14.50
2018-06-22T08:07:02.948Z,14.60
2018-06-22T08:09:31.915Z,14.70
2018-06-22T08:12:01.482Z,15.00
2018-06-22T08:14:30.460Z,15.00
2018-06-22T08:16:59.475Z,14.90
2018-06-22T08:19:28.400Z,14.90
2018-06-22T08:21:57.379Z,14.80
2018-06-22T08:24:26.578Z,15.00
2018-06-22T08:26:55.494Z,15.00
2018-06-22T08:29:24.462Z,15.10
2018-06-22T08:31:53.432Z,15.10
2018-06-22T08:34:22.406Z,15.30
2018-06-22T08:36:51.414Z,15.40
2018-06-22T08:39:20.392Z,15.50
2018-06-22T08:41:49.703Z,15.60
2018-06-22T08:44:18.647Z,15.70
2018-06-22T08:46:47.593Z,15.90
2018-06-22T08:49:16.849Z,16.00
2018-06-22T08:51:45.870Z,15.90
2018-06-22T08:54:14.917Z,15.90
2018-06-22T08:56:43.965Z,16.20
2018-06-22T08:59:12.977Z,16.80
2018-06-22T09:01:42.120Z,17.30
2018-06-22T09:04:11.009Z,17.30
2018-06-22T09:06:39.952Z,17.50
2018-06-22T09:09:08.988Z,17.50
2018-06-22T09:11:37.927Z,17.30
2018-06-22T09:14:06.880Z,16.90
2018-06-22T09:19:04.422Z,16.30
2018-06-22T09:21:33.446Z,16.20
2018-06-22T09:24:02.381Z,16.10
2018-06-22T09:26:31.370Z,15.90
2018-06-22T09:29:00.417Z,15.80
2018-06-22T09:31:29.398Z,15.70
2018-06-22T09:33:58.344Z,15.80
2018-06-22T09:36:27.301Z,15.80
2018-06-22T09:38:56.218Z,15.60
2018-06-22T09:41:25.304Z,15.40
2018-06-22T09:43:54.350Z,15.20
2018-06-22T09:46:23.274Z,15.10
2018-06-22T09:48:52.514Z,14.90
2018-06-22T09:51:21.536Z,14.70
2018-06-22T09:53:50.493Z,14.70
2018-06-22T09:56:19.602Z,14.80
2018-06-22T09:58:48.539Z,15.00
2018-06-22T10:01:17.575Z,15.40
2018-06-22T10:03:46.715Z,15.80
2018-06-22T10:06:17.011Z,16.30
2018-06-22T10:08:46.016Z,17.00
2018-06-22T10:11:14.964Z,17.50
2018-06-22T10:13:43.998Z,17.50
2018-06-22T10:16:12.943Z,17.60
2018-06-22T10:18:41.970Z,17.30
2018-06-22T10:21:10.962Z,16.80
2018-06-22T10:23:39.882Z,16.30
2018-06-22T10:26:08.933Z,16.20
2018-06-22T10:28:37.889Z,16.50
2018-06-22T10:31:06.867Z,16.90
2018-06-22T10:33:35.818Z,17.00
2018-06-22T10:36:04.964Z,17.10
2018-06-22T10:38:33.903Z,17.50
2018-06-22T10:41:02.836Z,17.70
2018-06-22T10:43:31.803Z,18.10
2018-06-22T10:46:00.734Z,18.40
2018-06-22T10:48:29.657Z,18.20
2018-06-22T10:50:58.800Z,18.20
2018-06-22T10:53:27.736Z,18.30
2018-06-22T10:55:56.696Z,18.40
2018-06-22T10:58:25.650Z,18.20
2018-06-22T11:00:54.562Z,18.00
2018-06-22T11:03:23.582Z,18.00
2018-06-22T11:05:52.662Z,18.00
2018-06-22T11:10:51.154Z,18.00
2018-06-22T11:13:20.214Z,18.10
2018-06-22T11:15:50.216Z,18.10
2018-06-22T11:18:19.300Z,17.70
2018-06-22T11:23:16.849Z,18.00
2018-06-22T11:25:45.801Z,18.20
2018-06-22T11:30:43.383Z,18.10
2018-06-22T11:33:12.354Z,18.00
2018-06-22T11:38:10.065Z,18.60
2018-06-22T11:40:39.069Z,19.00
2018-06-22T11:43:08.234Z,19.40
2018-06-22T11:45:37.499Z,19.90
2018-06-22T11:48:06.454Z,20.50
2018-06-22T11:50:35.619Z,20.40
2018-06-22T11:53:04.575Z,19.80
2018-06-22T11:55:33.542Z,19.40
2018-06-22T11:58:02.506Z,18.90
2018-06-22T12:00:31.511Z,18.40
2018-06-22T12:03:00.546Z,18.30
2018-06-22T12:05:29.539Z,18.40
2018-06-22T12:07:59.078Z,18.60
2018-06-22T12:10:28.107Z,18.60
2018-06-22T12:12:57.158Z,18.60
2018-06-22T12:15:26.106Z,18.80
2018-06-22T12:17:55.068Z,19.30
2018-06-22T12:20:23.997Z,19.70
2018-06-22T12:22:52.963Z,19.90
2018-06-22T12:25:21.923Z,20.00
2018-06-22T12:27:50.870Z,19.70
2018-06-22T12:30:19.885Z,19.50
2018-06-22T12:32:49.025Z,19.50
2018-06-22T12:35:18.071Z,19.50
2018-06-22T12:37:47.020Z,19.60
2018-06-22T12:40:16.050Z,19.60
2018-06-22T12:42:45.244Z,19.50
2018-06-22T12:45:14.380Z,19.40
2018-06-22T12:47:43.534Z,19.20
2018-06-22T12:50:12.758Z,18.90
2018-06-22T12:52:41.951Z,19.10
2018-06-22T12:55:11.033Z,19.50
2018-06-22T12:57:40.452Z,19.90
2018-06-22T13:00:09.528Z,20.30
2018-06-22T13:02:38.691Z,20.30
2018-06-22T13:05:07.904Z,20.60
2018-06-22T13:07:37.059Z,21.00
2018-06-22T13:10:06.497Z,21.40
2018-06-22T13:15:04.879Z,21.60
2018-06-22T13:17:33.849Z,21.60
2018-06-22T13:20:02.849Z,21.60
2018-06-22T13:22:31.834Z,21.70
2018-06-22T13:25:00.809Z,21.60
2018-06-22T13:27:29.864Z,21.60
2018-06-22T13:29:58.915Z,21.50
2018-06-22T13:32:27.925Z,21.30
2018-06-22T13:34:56.890Z,20.90
2018-06-22T13:37:26.001Z,20.70
2018-06-22T13:39:55.100Z,20.50
2018-06-22T13:42:24.334Z,20.40
2018-06-22T13:44:53.294Z,20.30
2018-06-22T13:47:22.281Z,20.30
2018-06-22T13:49:51.581Z,20.10
2018-06-22T13:52:20.563Z,19.80
2018-06-22T13:54:49.559Z,19.50
2018-06-22T13:57:18.549Z,19.40
2018-06-22T13:59:47.781Z,19.40
2018-06-22T14:02:16.877Z,19.60
2018-06-22T14:04:51.472Z,19.80
2018-06-22T14:07:20.618Z,19.90
2018-06-22T14:09:49.636Z,20.00
2018-06-22T14:12:18.586Z,20.10
2018-06-22T14:14:48.051Z,19.90
2018-06-22T14:17:17.046Z,19.80
2018-06-22T14:19:46.040Z,19.60
2018-06-22T14:22:16.119Z,19.60
2018-06-22T14:24:45.242Z,19.60
2018-06-22T14:27:15.695Z,19.40
2018-06-22T14:29:44.823Z,19.30
2018-06-22T14:32:13.988Z,19.10
2018-06-22T14:34:43.063Z,19.00
2018-06-22T14:39:40.937Z,19.30
2018-06-22T14:42:09.876Z,19.60
2018-06-22T14:44:39.118Z,19.80
2018-06-22T14:47:08.157Z,19.80
2018-06-22T14:49:38.125Z,20.10
2018-06-22T14:52:07.916Z,20.30
2018-06-22T14:54:42.402Z,20.70
2018-06-22T14:57:17.234Z,21.10
2018-06-22T15:00:49.966Z,21.30
2018-06-22T15:03:24.591Z,21.50
2018-06-22T15:05:59.473Z,21.50
2018-06-22T15:08:29.312Z,21.10
2018-06-22T15:10:58.322Z,21.00
2018-06-22T15:13:27.372Z,21.10
2018-06-22T15:15:59.299Z,21.20
2018-06-22T15:18:28.271Z,21.20
2018-06-22T15:20:57.234Z,21.20
2018-06-22T15:23:27.094Z,21.20
2018-06-22T15:25:56.067Z,21.00
2018-06-22T15:28:25.082Z,20.70
2018-06-22T15:30:54.186Z,20.50
2018-06-22T15:33:28.504Z,20.30
2018-06-22T15:36:03.014Z,20.00
2018-06-22T15:38:37.354Z,19.90
2018-06-22T15:41:11.689Z,19.60
2018-06-22T15:43:46.006Z,19.30
2018-06-22T15:46:20.381Z,19.20
2018-06-22T15:48:54.945Z,19.30
2018-06-22T15:51:29.454Z,19.40
2018-06-22T15:55:02.939Z,19.80
2018-06-22T15:57:31.892Z,19.90
2018-06-22T16:00:00.854Z,19.80
2018-06-22T16:02:35.228Z,19.60
2018-06-22T16:05:04.269Z,19.40
2018-06-22T16:07:33.382Z,19.30
2018-06-22T16:10:02.972Z,19.30
2018-06-22T16:12:40.330Z,19.50
2018-06-22T16:15:16.163Z,19.70
2018-06-22T16:17:50.792Z,19.60
2018-06-22T16:21:26.050Z,19.50
2018-06-22T16:24:00.671Z,19.40
2018-06-22T16:26:35.234Z,19.80
2018-06-22T16:29:04.264Z,19.90
2018-06-22T16:31:33.397Z,19.90
2018-06-22T16:34:02.395Z,19.90
2018-06-22T16:36:32.423Z,20.00
2018-06-22T16:39:01.403Z,20.20
2018-06-22T16:41:30.572Z,20.30
2018-06-22T16:43:59.548Z,20.30
2018-06-22T16:46:28.596Z,20.20
2018-06-22T16:48:57.605Z,20.00
2018-06-22T16:51:26.671Z,19.80
2018-06-22T16:53:55.623Z,19.70
2018-06-22T16:56:25.106Z,19.60
2018-06-22T17:01:23.111Z,19.10
2018-06-22T17:03:52.084Z,19.20
2018-06-22T17:08:55.078Z,19.20
2018-06-22T17:11:29.422Z,19.30
2018-06-22T17:14:03.878Z,19.30
2018-06-22T17:16:38.186Z,19.10
2018-06-22T17:19:07.150Z,18.90
2018-06-22T17:21:36.203Z,18.60
2018-06-22T17:24:05.200Z,18.30
2018-06-22T17:26:34.163Z,18.10
2018-06-22T17:29:03.185Z,18.00
2018-06-22T17:31:32.260Z,17.90
2018-06-22T17:34:01.228Z,18.00
2018-06-22T17:36:30.377Z,17.90
2018-06-22T17:38:59.477Z,17.90
2018-06-22T17:41:28.521Z,17.90
2018-06-22T17:43:57.529Z,17.80
2018-06-22T17:46:26.517Z,17.60
2018-06-22T17:48:59.856Z,17.50
2018-06-22T17:51:28.981Z,17.40
2018-06-22T17:53:59.079Z,17.50
2018-06-22T17:56:31.200Z,17.60
2018-06-22T17:59:05.729Z,17.60
2018-06-22T18:01:40.263Z,17.60
2018-06-22T18:04:14.965Z,17.50
2018-06-22T18:06:51.604Z,17.50
2018-06-22T18:09:27.185Z,17.40
2018-06-22T18:12:05.091Z,17.30
2018-06-22T18:17:09.321Z,17.30
2018-06-22T18:19:41.393Z,17.30
2018-06-22T18:24:39.369Z,17.20
2018-06-22T18:27:08.348Z,17.00
2018-06-22T18:29:37.461Z,16.90
2018-06-22T18:32:06.472Z,16.90
2018-06-22T18:34:35.636Z,16.80
2018-06-22T18:37:04.733Z,16.70
2018-06-22T18:39:33.669Z,16.70
2018-06-22T18:42:02.695Z,16.60
2018-06-22T18:44:31.766Z,16.50
2018-06-22T18:47:00.961Z,16.50
2018-06-22T18:49:29.995Z,16.40
2018-06-22T18:52:04.446Z,16.30
2018-06-22T18:54:38.980Z,16.30
2018-06-22T18:57:13.590Z,16.20
2018-06-22T18:59:46.826Z,16.20
2018-06-22T19:02:22.358Z,16.10
2018-06-22T19:04:51.406Z,16.10
2018-06-22T19:07:20.374Z,16.00
2018-06-22T19:09:49.387Z,15.80
2018-06-22T19:12:18.534Z,15.70
2018-06-22T19:14:47.625Z,15.70
2018-06-22T19:17:16.638Z,15.60
2018-06-22T19:19:45.639Z,15.60
2018-06-22T19:22:14.902Z,15.50
2018-06-22T19:24:43.910Z,15.40
2018-06-22T19:27:12.890Z,15.30
2018-06-22T19:29:41.903Z,15.20
2018-06-22T19:32:10.879Z,15.20
2018-06-22T19:34:45.227Z,15.20
2018-06-22T19:37:14.269Z,15.20
2018-06-22T19:39:43.347Z,15.10
2018-06-22T19:42:12.547Z,15.10
2018-06-22T19:44:47.215Z,15.10
2018-06-22T19:47:21.585Z,15.20
2018-06-22T19:49:56.069Z,15.20
2018-06-22T19:52:30.457Z,15.20
2018-06-22T19:54:59.529Z,15.10
2018-06-22T19:59:57.386Z,15.00
2018-06-22T20:02:26.398Z,14.90
2018-06-22T20:04:55.730Z,14.90
2018-06-22T20:07:24.712Z,14.80
2018-06-22T20:09:53.733Z,14.80
2018-06-22T20:14:52.405Z,14.70
2018-06-22T20:17:21.423Z,14.60
2018-06-22T20:19:50.371Z,14.60
2018-06-22T20:22:19.498Z,14.70
2018-06-22T20:24:54.055Z,14.60
2018-06-22T20:27:22.998Z,14.70
2018-06-22T20:29:52.296Z,14.70
2018-06-22T20:32:21.389Z,14.60
2018-06-22T20:34:55.737Z,14.60
2018-06-22T20:37:30.251Z,14.60
2018-06-22T20:40:04.691Z,14.60
2018-06-22T20:42:39.313Z,14.50
2018-06-22T20:45:13.792Z,14.50
2018-06-22T20:47:48.255Z,14.50
2018-06-22T20:50:22.589Z,14.50
2018-06-22T20:52:51.634Z,14.50
2018-06-22T20:55:20.611Z,14.50
2018-06-22T20:57:49.573Z,14.40
2018-06-22T21:00:18.573Z,14.50
2018-06-22T21:02:47.582Z,14.40
2018-06-22T21:05:16.683Z,14.40
2018-06-22T21:07:45.661Z,14.40
2018-06-22T21:10:14.652Z,14.30
2018-06-22T21:12:44.228Z,14.30
2018-06-22T21:15:13.315Z,14.30
2018-06-22T21:17:42.480Z,14.40
2018-06-22T21:20:11.730Z,14.30
2018-06-22T21:22:41.389Z,14.30
2018-06-22T21:25:10.350Z,14.30
2018-06-22T21:27:44.613Z,14.20
2018-06-22T21:30:18.969Z,14.20
2018-06-22T21:32:53.423Z,14.10
2018-06-22T21:35:27.836Z,14.10
2018-06-22T21:38:02.381Z,14.10
2018-06-22T21:40:31.306Z,14.10
2018-06-22T21:43:00.281Z,14.10
2018-06-22T21:45:29.319Z,14.20
2018-06-22T21:47:58.299Z,14.10
2018-06-22T21:50:27.255Z,14.10
2018-06-22T21:52:56.353Z,14.10
2018-06-22T21:55:25.355Z,14.10
2018-06-22T21:57:54.335Z,14.10
2018-06-22T22:00:31.857Z,14.10
2018-06-22T22:03:01.878Z,14.10
2018-06-22T22:05:31.314Z,14.10
2018-06-22T22:08:00.465Z,14.10
2018-06-22T22:10:34.948Z,14.00
2018-06-22T22:13:03.920Z,14.00
2018-06-22T22:15:32.977Z,14.10
2018-06-22T22:18:01.914Z,14.00
2018-06-22T22:20:30.879Z,14.00
2018-06-22T22:22:59.904Z,14.00
2018-06-22T22:27:57.533Z,14.00
2018-06-22T22:30:26.539Z,14.00
2018-06-22T22:32:55.562Z,14.00
2018-06-22T22:35:24.525Z,14.00
2018-06-22T22:37:53.508Z,13.90
2018-06-22T22:40:22.529Z,13.90
2018-06-22T22:45:20.152Z,13.90
2018-06-22T22:47:49.082Z,13.90
2018-06-22T22:50:18.018Z,13.90
2018-06-22T22:52:47.142Z,13.80
2018-06-22T22:55:16.080Z,13.80
2018-06-22T23:00:13.650Z,13.70
2018-06-22T23:02:42.755Z,13.80
2018-06-22T23:05:11.690Z,13.80
2018-06-22T23:07:40.632Z,13.80
2018-06-22T23:10:09.662Z,13.80
2018-06-22T23:12:38.593Z,13.80
2018-06-22T23:15:08.657Z,13.80
2018-06-22T23:17:37.605Z,13.80
2018-06-22T23:20:06.745Z,13.80
2018-06-22T23:22:47.170Z,13.80
2018-06-22T23:27:44.778Z,13.60
2018-06-22T23:30:13.804Z,13.60
2018-06-22T23:32:42.823Z,13.50
2018-06-22T23:35:11.798Z,13.50
2018-06-22T23:37:40.745Z,13.40
2018-06-22T23:40:10.804Z,13.40
2018-06-22T23:42:39.866Z,13.30
2018-06-22T23:45:08.761Z,13.20
2018-06-22T23:47:37.765Z,13.10
2018-06-22T23:50:06.720Z,13.10
2018-06-22T23:52:35.674Z,13.10
2018-06-22T23:55:04.768Z,12.90
2018-06-22T23:57:33.802Z,12.80
